Time;durP1;ratioP1;P1;durP2;ratioP2;P2;SDS_P1;SDS_P2;PMS_P1;PMS_P2;Temp;Humidity;BMP_temperature;BMP_pressure;BME280_temperature;BME280_humidity;BME280_pressure;Samples;Min_cycle;Max_cycle;Signal;HPM_P1;HPM_P2
2024/01/17 00:00:35;;;;;;;5.65;3.28;;;-5.30;99.90;;;;;;5057522;28;20239;-80
2024/01/17 00:03:02;;;;;;;3.55;2.78;;;-5.30;99.90;;;;;;5057003;28;20471;-80
2024/01/17 00:05:28;;;;;;;14.65;3.70;;;-5.40;99.90;;;;;;5057761;28;20216;-80
2024/01/17 00:07:55;;;;;;;2.45;2.25;;;-5.30;99.90;;;;;;5057030;28;20205;-79
2024/01/17 00:10:24;;;;;;;5.80;3.65;;;-5.30;99.90;;;;;;5056351;28;20699;-80
2024/01/17 00:12:52;;;;;;;5.57;2.65;;;-5.30;99.90;;;;;;5056296;28;20279;-80
2024/01/17 00:15:19;;;;;;;4.82;3.08;;;-5.30;99.90;;;;;;5056255;28;20205;-80
2024/01/17 00:17:46;;;;;;;2.70;2.50;;;-5.30;99.90;;;;;;5073499;28;20238;-80
2024/01/17 00:20:13;;;;;;;4.57;3.03;;;-5.20;99.90;;;;;;5067839;28;20204;-80
2024/01/17 00:22:40;;;;;;;4.72;3.10;;;-5.10;99.90;;;;;;5076211;28;20244;-79
2024/01/17 00:25:09;;;;;;;2.25;1.60;;;-5.10;99.90;;;;;;5075720;28;20209;-80
2024/01/17 00:27:36;;;;;;;2.10;1.90;;;-5.10;99.90;;;;;;5074355;28;20219;-79
2024/01/17 00:30:06;;;;;;;2.67;2.47;;;-5.10;99.90;;;;;;5070606;28;20698;-79
2024/01/17 00:32:34;;;;;;;9.05;2.95;;;-5.10;99.90;;;;;;5079112;28;20224;-78
2024/01/17 00:35:01;;;;;;;8.82;2.75;;;-5.10;99.90;;;;;;5080130;28;20204;-78
2024/01/17 00:37:29;;;;;;;10.57;3.25;;;-5.10;99.90;;;;;;5080332;28;20215;-79
2024/01/17 00:39:56;;;;;;;2.95;2.72;;;-5.00;99.90;;;;;;5079582;28;20303;-79
2024/01/17 00:42:23;;;;;;;3.78;2.97;;;-5.00;99.90;;;;;;5078449;28;20228;-79
2024/01/17 00:44:50;;;;;;;3.00;2.40;;;-5.00;99.90;;;;;;5077017;28;20592;-79
2024/01/17 00:47:18;;;;;;;3.72;3.42;;;-5.00;99.90;;;;;;5078690;28;20212;-79
2024/01/17 00:49:45;;;;;;;2.95;2.40;;;-5.00;99.90;;;;;;5081669;28;20204;-80
2024/01/17 00:52:11;;;;;;;3.03;2.83;;;-4.90;99.90;;;;;;5079938;28;20313;-80
2024/01/17 00:54:38;;;;;;;5.57;2.45;;;-4.90;99.90;;;;;;5079040;28;20231;-79
2024/01/17 00:57:05;;;;;;;2.55;2.35;;;-4.90;99.90;;;;;;5078183;28;20216;-80
2024/01/17 00:59:32;;;;;;;2.15;2.03;;;-4.90;99.90;;;;;;5078467;28;20212;-80
2024/01/17 01:02:01;;;;;;;1.70;1.60;;;-4.90;99.90;;;;;;5077969;28;20228;-80
2024/01/17 01:04:29;;;;;;;2.90;1.95;;;-4.80;99.90;;;;;;5077791;28;20216;-80
2024/01/17 01:06:56;;;;;;;2.80;2.60;;;-4.80;99.90;;;;;;5077003;28;20217;-79
2024/01/17 01:09:23;;;;;;;4.50;2.67;;;-4.70;99.90;;;;;;5077913;28;20204;-79
2024/01/17 01:11:49;;;;;;;4.20;3.80;;;-4.70;99.90;;;;;;5076842;28;20224;-80
2024/01/17 01:14:16;;;;;;;2.25;2.05;;;-4.70;99.90;;;;;;5070296;28;20196;-80
2024/01/17 01:16:43;;;;;;;4.95;3.08;;;-4.60;99.90;;;;;;5077456;28;20205;-80
2024/01/17 01:19:10;;;;;;;3.63;2.33;;;-4.60;99.90;;;;;;5079217;28;20224;-80
2024/01/17 01:21:38;;;;;;;2.42;2.22;;;-4.50;99.90;;;;;;5079746;28;20228;-80
2024/01/17 01:24:05;;;;;;;3.00;2.72;;;-4.50;99.90;;;;;;5076624;28;20220;-80
2024/01/17 01:26:32;;;;;;;3.05;2.85;;;-4.40;99.90;;;;;;5076864;28;20216;-80
2024/01/17 01:28:59;;;;;;;3.38;2.92;;;-4.40;99.90;;;;;;5075735;28;20212;-80
2024/01/17 01:31:25;;;;;;;3.38;3.08;;;-4.30;99.90;;;;;;5077187;28;20209;-80
2024/01/17 01:33:52;;;;;;;2.17;1.85;;;-4.20;99.90;;;;;;5076430;28;20224;-80
2024/01/17 01:36:19;;;;;;;10.50;3.30;;;-4.20;99.90;;;;;;5071773;28;20204;-80
2024/01/17 01:38:48;;;;;;;1.92;1.83;;;-4.20;99.90;;;;;;5079545;28;20211;-80
2024/01/17 01:41:14;;;;;;;6.63;1.92;;;-4.00;99.90;;;;;;5077589;28;20227;-80
2024/01/17 01:43:41;;;;;;;3.92;3.38;;;-4.00;99.90;;;;;;5076334;28;20233;-79
2024/01/17 01:46:15;;;;;;;1.60;1.50;;;-3.90;99.90;;;;;;5075049;28;20211;-79
2024/01/17 01:48:43;;;;;;;6.18;4.72;;;-3.90;99.90;;;;;;5076136;28;20213;-80
2024/01/17 01:51:11;;;;;;;6.70;3.85;;;-3.80;99.90;;;;;;5075612;28;20581;-79
2024/01/17 01:53:40;;;;;;;3.50;3.20;;;-3.80;99.90;;;;;;5077153;28;20224;-79
2024/01/17 01:56:09;;;;;;;3.22;2.40;;;-3.70;99.90;;;;;;5075277;28;20666;-80
2024/01/17 01:58:37;;;;;;;3.78;3.47;;;-3.70;99.90;;;;;;5075935;28;20215;-79
2024/01/17 02:01:06;;;;;;;3.70;2.92;;;-3.70;99.90;;;;;;5077001;28;20212;-80
2024/01/17 02:03:34;;;;;;;8.18;3.72;;;-3.70;99.90;;;;;;5076845;28;20212;-80
2024/01/17 02:06:01;;;;;;;2.72;2.47;;;-3.70;99.90;;;;;;5074283;28;20215;-80
2024/01/17 02:08:28;;;;;;;2.35;2.15;;;-3.70;99.90;;;;;;5071052;28;20208;-79
2024/01/17 02:10:56;;;;;;;3.30;2.92;;;-3.60;99.90;;;;;;5071145;28;20208;-80
2024/01/17 02:13:24;;;;;;;4.60;3.10;;;-3.60;99.90;;;;;;5068533;28;20235;-79
2024/01/17 02:15:51;;;;;;;8.40;2.60;;;-3.60;99.90;;;;;;5072760;28;20204;-79
2024/01/17 02:18:17;;;;;;;2.58;2.38;;;-3.60;99.90;;;;;;5072728;28;20216;-79
2024/01/17 02:20:44;;;;;;;3.35;2.92;;;-3.50;99.90;;;;;;5074282;28;20204;-79
2024/01/17 02:23:24;;;;;;;4.85;2.75;;;-3.50;99.90;;;;;;5076071;28;20702;-80
2024/01/17 02:25:54;;;;;;;3.97;3.67;;;-3.40;99.90;;;;;;5075974;28;20205;-80
2024/01/17 02:28:21;;;;;;;8.07;3.58;;;-3.30;99.90;;;;;;5075296;28;20215;-80
2024/01/17 02:30:48;;;;;;;4.22;3.28;;;-3.20;99.90;;;;;;5077649;28;20204;-80
2024/01/17 02:33:15;;;;;;;5.55;2.50;;;-3.20;99.90;;;;;;5074915;28;20235;-80
2024/01/17 02:35:43;;;;;;;2.63;2.28;;;-3.20;99.90;;;;;;5079515;28;20216;-80
2024/01/17 02:38:10;;;;;;;2.90;2.60;;;-3.10;99.90;;;;;;5073821;28;20213;-80
2024/01/17 02:40:37;;;;;;;4.38;3.45;;;-3.00;99.90;;;;;;5079960;28;20216;-80
2024/01/17 02:43:05;;;;;;;4.97;3.75;;;-3.00;99.90;;;;;;5074304;28;20224;-80
2024/01/17 02:45:32;;;;;;;3.25;2.85;;;-2.90;99.90;;;;;;5075080;28;20242;-80
2024/01/17 02:47:59;;;;;;;6.25;3.33;;;-2.90;99.90;;;;;;5075159;28;20260;-80
2024/01/17 02:50:27;;;;;;;4.28;2.50;;;-2.80;99.90;;;;;;5073627;28;20582;-80
2024/01/17 02:52:54;;;;;;;3.47;2.67;;;-2.80;99.90;;;;;;5079525;28;20228;-80
2024/01/17 02:55:22;;;;;;;3.28;2.65;;;-2.80;99.90;;;;;;5083142;28;20244;-79
2024/01/17 02:57:50;;;;;;;3.50;3.15;;;-2.80;99.90;;;;;;5087560;28;20695;-79
2024/01/17 03:00:19;;;;;;;6.20;3.22;;;-2.80;99.90;;;;;;5088788;28;20231;-80
2024/01/17 03:02:46;;;;;;;2.50;2.30;;;-2.70;99.90;;;;;;5087785;28;20220;-78
2024/01/17 03:05:13;;;;;;;5.15;4.65;;;-2.70;99.90;;;;;;5081696;28;20488;-78
2024/01/17 03:07:40;;;;;;;7.10;4.43;;;-2.60;99.90;;;;;;5081758;28;20584;-79
2024/01/17 03:10:11;;;;;;;6.68;3.00;;;-2.50;99.90;;;;;;5071602;28;20211;-79
2024/01/17 03:12:38;;;;;;;3.78;3.17;;;-2.50;99.90;;;;;;5081043;28;20563;-79
2024/01/17 03:15:06;;;;;;;2.55;2.35;;;-2.50;99.90;;;;;;5080870;28;20574;-79
2024/01/17 03:17:35;;;;;;;8.88;3.45;;;-2.50;99.90;;;;;;5078732;28;20208;-79
2024/01/17 03:20:01;;;;;;;4.05;2.78;;;-2.50;99.90;;;;;;5078644;28;20201;-79
2024/01/17 03:22:28;;;;;;;17.02;3.65;;;-2.40;99.90;;;;;;5079734;28;20243;-78
2024/01/17 03:24:55;;;;;;;6.53;4.07;;;-2.40;99.90;;;;;;5084301;28;20199;-79
2024/01/17 03:27:22;;;;;;;4.55;2.60;;;-2.40;99.90;;;;;;5082516;28;20207;-78
2024/01/17 03:29:49;;;;;;;4.10;3.80;;;-2.40;99.90;;;;;;5082964;28;20205;-79
2024/01/17 03:32:15;;;;;;;3.20;2.90;;;-2.30;99.90;;;;;;5083836;28;20216;-79
2024/01/17 03:34:44;;;;;;;2.50;2.28;;;-2.30;99.90;;;;;;5087480;28;20231;-80
2024/01/17 03:37:10;;;;;;;4.85;4.22;;;-2.20;99.90;;;;;;5080583;28;20201;-80
2024/01/17 03:39:38;;;;;;;5.50;4.72;;;-2.20;99.90;;;;;;5078349;28;20197;-79
2024/01/17 03:42:05;;;;;;;5.70;3.97;;;-2.20;99.90;;;;;;5074235;28;20289;-80
2024/01/17 03:44:32;;;;;;;5.50;3.95;;;-2.20;99.90;;;;;;5066086;28;20688;-80
2024/01/17 03:46:58;;;;;;;4.45;4.05;;;-2.20;99.90;;;;;;5064926;28;20204;-80
2024/01/17 03:49:25;;;;;;;7.97;4.35;;;-2.10;99.90;;;;;;5065937;28;20211;-80
2024/01/17 03:51:55;;;;;;;4.13;2.95;;;-2.10;99.90;;;;;;5066345;28;20228;-81
2024/01/17 03:54:22;;;;;;;2.88;2.67;;;-2.00;99.90;;;;;;5067830;28;20224;-82
2024/01/17 03:56:49;;;;;;;4.18;2.97;;;-2.00;99.90;;;;;;5075142;28;20232;-83
2024/01/17 03:59:16;;;;;;;6.28;3.45;;;-2.00;99.90;;;;;;5074490;28;20201;-84
2024/01/17 04:01:43;;;;;;;4.10;2.83;;;-1.90;99.90;;;;;;5072784;28;20228;-82
2024/01/17 04:04:10;;;;;;;4.82;3.65;;;-1.90;99.90;;;;;;5080449;28;20200;-82
2024/01/17 04:06:37;;;;;;;5.88;4.00;;;-1.90;99.90;;;;;;5080294;28;20204;-83
2024/01/17 04:09:06;;;;;;;5.22;3.60;;;-1.90;99.90;;;;;;5084260;28;20200;-83
2024/01/17 04:11:33;;;;;;;3.78;2.88;;;-1.80;99.90;;;;;;5085250;28;20232;-83
2024/01/17 04:14:00;;;;;;;7.05;3.20;;;-1.80;99.90;;;;;;5083576;28;20235;-83
2024/01/17 04:16:26;;;;;;;3.92;3.47;;;-1.80;99.90;;;;;;5084963;28;20206;-83
2024/01/17 04:18:53;;;;;;;3.33;3.00;;;-1.70;99.90;;;;;;5083695;28;20205;-81
2024/01/17 04:21:21;;;;;;;3.72;3.30;;;-1.80;99.90;;;;;;5085742;28;20299;-83
2024/01/17 04:23:48;;;;;;;5.57;3.78;;;-1.70;99.90;;;;;;5087768;28;20200;-78
2024/01/17 04:26:24;;;;;;;5.90;3.92;;;-1.70;99.90;;;;;;5081083;28;20201;-78
2024/01/17 04:28:51;;;;;;;7.05;4.15;;;-1.60;99.90;;;;;;5079835;28;20570;-81
2024/01/17 04:31:25;;;;;;;5.65;4.45;;;-1.50;99.90;;;;;;5081614;28;20204;-83
2024/01/17 04:33:52;;;;;;;7.38;4.03;;;-1.50;99.90;;;;;;5083618;28;20216;-82
2024/01/17 04:36:20;;;;;;;5.15;4.03;;;-1.50;99.90;;;;;;5087129;28;20574;-81
2024/01/17 04:38:47;;;;;;;4.20;3.50;;;-1.40;99.90;;;;;;5086158;28;21038;-79
2024/01/17 04:41:15;;;;;;;12.15;7.47;;;-1.40;99.90;;;;;;5075250;28;20465;-77
2024/01/17 04:43:45;;;;;;;9.55;5.40;;;-1.30;99.90;;;;;;5072432;28;20196;-77
2024/01/17 04:46:13;;;;;;;6.78;4.40;;;-1.20;99.90;;;;;;5072129;28;20209;-77
2024/01/17 04:48:40;;;;;;;5.35;3.20;;;-1.20;99.90;;;;;;5075522;28;20208;-79
2024/01/17 04:51:07;;;;;;;4.22;3.83;;;-1.10;99.90;;;;;;5068868;28;20213;-77
2024/01/17 04:53:34;;;;;;;5.38;3.92;;;-1.10;99.90;;;;;;5068255;28;20302;-77
2024/01/17 04:56:02;;;;;;;3.97;3.67;;;-1.00;99.90;;;;;;5067083;28;20200;-77
2024/01/17 04:58:28;;;;;;;7.53;3.50;;;-1.00;99.90;;;;;;5066794;28;20201;-77
2024/01/17 05:00:56;;;;;;;4.20;2.83;;;-0.90;99.90;;;;;;5066061;28;20208;-77
2024/01/17 05:03:23;;;;;;;5.43;3.67;;;-0.90;99.90;;;;;;5064719;28;20225;-77
2024/01/17 05:05:50;;;;;;;7.70;5.03;;;-0.80;99.90;;;;;;5067233;28;20196;-76
2024/01/17 05:08:17;;;;;;;5.45;4.28;;;-0.80;99.90;;;;;;5063527;28;20224;-77
2024/01/17 05:10:45;;;;;;;4.22;3.40;;;-0.70;99.90;;;;;;5068380;28;20197;-77
2024/01/17 05:13:12;;;;;;;4.32;3.90;;;-0.70;99.90;;;;;;5072698;28;20690;-77
2024/01/17 05:15:39;;;;;;;4.13;2.90;;;-0.70;99.90;;;;;;5077496;28;20712;-81
2024/01/17 05:18:08;;;;;;;6.00;3.78;;;-0.70;99.90;;;;;;5079357;28;20201;-82
2024/01/17 05:20:35;;;;;;;6.00;3.55;;;-0.60;99.90;;;;;;5075621;28;20616;-83
2024/01/17 05:23:02;;;;;;;5.85;3.72;;;-0.60;99.90;;;;;;5074639;28;20216;-82
2024/01/17 05:25:29;;;;;;;3.47;3.15;;;-0.60;99.90;;;;;;5072518;28;20204;-83
2024/01/17 05:27:56;;;;;;;7.43;4.05;;;-0.60;99.90;;;;;;5075017;28;20200;-82
2024/01/17 05:30:24;;;;;;;6.07;3.92;;;-0.70;99.90;;;;;;5070186;28;20205;-77
2024/01/17 05:32:51;;;;;;;8.52;5.22;;;-0.70;99.90;;;;;;5065868;28;20220;-79
2024/01/17 05:35:20;;;;;;;6.57;5.20;;;-0.70;99.90;;;;;;5066232;28;20217;-82
2024/01/17 05:37:48;;;;;;;8.25;5.75;;;-0.70;99.90;;;;;;5068474;28;20196;-83
2024/01/17 05:40:15;;;;;;;7.53;4.30;;;-0.80;99.90;;;;;;5065481;28;20275;-82
2024/01/17 05:42:43;;;;;;;11.68;4.82;;;-0.80;99.90;;;;;;5074139;28;20232;-83
2024/01/17 05:45:10;;;;;;;6.55;5.53;;;-0.80;99.90;;;;;;5073732;28;20260;-83
2024/01/17 05:47:38;;;;;;;5.60;4.68;;;-0.80;99.90;;;;;;5075913;28;20673;-83
2024/01/17 05:50:08;;;;;;;9.38;3.92;;;-0.80;99.90;;;;;;5075040;28;20209;-78
2024/01/17 05:52:37;;;;;;;4.13;3.67;;;-0.80;99.90;;;;;;5073545;28;20278;-82
2024/01/17 05:55:04;;;;;;;7.45;5.30;;;-0.70;99.90;;;;;;5073067;28;20221;-79
2024/01/17 05:57:31;;;;;;;7.88;5.43;;;-0.70;99.90;;;;;;5077240;28;20205;-79
2024/01/17 05:59:57;;;;;;;4.72;3.78;;;-0.70;99.90;;;;;;5073146;28;20209;-82
2024/01/17 06:02:24;;;;;;;9.65;4.95;;;-0.70;99.90;;;;;;5077412;28;20228;-80
2024/01/17 06:04:51;;;;;;;6.30;5.65;;;-0.70;99.90;;;;;;5068117;28;20211;-80
2024/01/17 06:07:18;;;;;;;7.55;4.65;;;-0.70;99.90;;;;;;5076842;28;20225;-79
2024/01/17 06:09:46;;;;;;;9.70;4.55;;;-0.70;99.90;;;;;;5071442;28;20201;-79
2024/01/17 06:12:13;;;;;;;7.30;4.32;;;-0.70;99.90;;;;;;5068670;28;20286;-77
2024/01/17 06:14:40;;;;;;;7.20;5.93;;;-0.60;99.90;;;;;;5061785;28;24216;-76
2024/01/17 06:17:08;;;;;;;12.55;4.05;;;-0.60;99.90;;;;;;5063778;28;20204;-78
2024/01/17 06:19:34;;;;;;;15.70;5.50;;;-0.60;99.90;;;;;;5077933;28;20232;-80
2024/01/17 06:22:01;;;;;;;9.45;5.53;;;-0.60;99.90;;;;;;5078232;28;20224;-79
2024/01/17 06:24:29;;;;;;;6.38;3.50;;;-0.60;99.90;;;;;;5076415;28;20208;-77
2024/01/17 06:26:57;;;;;;;8.52;5.10;;;-0.60;99.90;;;;;;5072601;28;20197;-77
2024/01/17 06:29:25;;;;;;;7.82;4.75;;;-0.60;99.90;;;;;;5072889;28;20216;-79
2024/01/17 06:31:52;;;;;;;7.72;5.47;;;-0.50;99.90;;;;;;5086402;28;20246;-80
2024/01/17 06:34:19;;;;;;;5.63;4.50;;;-0.50;99.90;;;;;;5080156;28;20231;-81
2024/01/17 06:36:46;;;;;;;11.32;5.07;;;-0.50;99.90;;;;;;5073130;28;20200;-80
2024/01/17 06:39:13;;;;;;;4.95;3.17;;;-0.50;99.90;;;;;;5072381;28;20583;-83
2024/01/17 06:41:39;;;;;;;9.73;5.68;;;-0.50;99.90;;;;;;5073586;28;20263;-77
2024/01/17 06:44:09;;;;;;;10.38;5.30;;;-0.40;99.90;;;;;;5071236;28;20559;-84
2024/01/17 06:46:36;;;;;;;5.38;3.75;;;-0.40;99.90;;;;;;5062663;28;20247;-81
2024/01/17 06:49:03;;;;;;;5.75;4.50;;;-0.40;99.90;;;;;;5076260;28;20295;-81
2024/01/17 06:51:29;;;;;;;11.18;4.20;;;-0.40;99.90;;;;;;5067538;28;20282;-77
2024/01/17 06:53:56;;;;;;;10.70;5.07;;;-0.30;99.90;;;;;;5067199;28;20208;-77
2024/01/17 06:56:23;;;;;;;6.45;4.15;;;-0.30;99.90;;;;;;5077789;28;20205;-80
2024/01/17 06:58:50;;;;;;;7.75;4.70;;;-0.30;99.90;;;;;;5080721;28;20211;-83
2024/01/17 07:01:18;;;;;;;5.72;4.72;;;-0.20;99.90;;;;;;5058427;28;20200;-76
2024/01/17 07:03:45;;;;;;;7.68;4.40;;;-0.10;99.90;;;;;;5065297;28;20224;-76
2024/01/17 07:06:11;;;;;;;6.65;4.60;;;-0.10;99.90;;;;;;5066716;28;20196;-79
2024/01/17 07:08:38;;;;;;;8.57;5.00;;;-0.10;99.90;;;;;;5071700;28;20200;-77
2024/01/17 07:11:05;;;;;;;9.25;4.85;;;0.00;99.90;;;;;;5058798;28;20205;-80
2024/01/17 07:13:32;;;;;;;6.47;5.22;;;0.00;99.90;;;;;;5071188;28;20229;-79
2024/01/17 07:15:58;;;;;;;5.47;4.57;;;0.00;99.90;;;;;;5073786;28;20224;-78
2024/01/17 07:18:26;;;;;;;11.52;4.75;;;0.00;99.90;;;;;;5072462;28;20200;-76
2024/01/17 07:20:53;;;;;;;4.60;4.15;;;0.00;99.90;;;;;;5067442;28;20220;-78
2024/01/17 07:23:20;;;;;;;4.60;3.75;;;0.00;99.90;;;;;;5057163;28;20237;-76
2024/01/17 07:25:46;;;;;;;7.97;5.25;;;0.10;99.90;;;;;;5063762;28;20210;-80
2024/01/17 07:28:14;;;;;;;8.40;5.97;;;0.10;99.90;;;;;;5062779;28;20205;-80
2024/01/17 07:30:42;;;;;;;6.60;5.15;;;0.10;99.90;;;;;;5063977;28;20200;-80
2024/01/17 07:33:09;;;;;;;5.60;4.95;;;0.20;99.90;;;;;;5062583;28;20218;-78
2024/01/17 07:35:37;;;;;;;7.82;4.78;;;0.20;99.90;;;;;;5072638;28;20323;-78
2024/01/17 07:38:04;;;;;;;9.32;5.18;;;0.20;99.90;;;;;;5075380;28;20201;-80
2024/01/17 07:40:31;;;;;;;6.20;3.90;;;0.20;99.90;;;;;;5072485;28;20246;-77
2024/01/17 07:42:58;;;;;;;6.32;5.35;;;0.30;99.90;;;;;;5064858;28;20231;-77
2024/01/17 07:45:25;;;;;;;7.03;4.40;;;0.30;99.90;;;;;;5068390;28;20205;-78
2024/01/17 07:47:52;;;;;;;5.10;3.78;;;0.30;99.90;;;;;;5067600;28;20239;-77
2024/01/17 07:50:19;;;;;;;9.98;5.43;;;0.40;99.90;;;;;;5061305;28;20635;-77
2024/01/17 07:52:48;;;;;;;12.32;5.80;;;0.40;99.90;;;;;;5073270;28;20263;-78
2024/01/17 07:55:15;;;;;;;10.80;6.78;;;0.40;99.90;;;;;;5063981;28;20213;-78
2024/01/17 07:57:42;;;;;;;12.27;5.30;;;0.40;99.90;;;;;;5074089;28;20222;-78
2024/01/17 08:00:11;;;;;;;8.55;5.32;;;0.40;99.90;;;;;;5076158;28;20209;-76
2024/01/17 08:02:38;;;;;;;10.20;5.10;;;0.50;99.90;;;;;;5076586;28;20239;-78
2024/01/17 08:05:05;;;;;;;6.43;4.40;;;0.50;99.90;;;;;;5068171;28;20193;-77
2024/01/17 08:07:32;;;;;;;7.30;5.82;;;0.50;99.90;;;;;;5062084;28;20224;-83
2024/01/17 08:10:01;;;;;;;12.90;5.65;;;0.50;99.90;;;;;;5064526;28;20231;-82
2024/01/17 08:12:27;;;;;;;10.07;5.28;;;0.50;99.90;;;;;;5061732;28;20233;-84
2024/01/17 08:14:54;;;;;;;8.77;5.65;;;0.50;99.90;;;;;;5070967;28;20224;-82
2024/01/17 08:17:21;;;;;;;7.03;4.40;;;0.50;99.90;;;;;;5074755;28;20212;-80
2024/01/17 08:19:47;;;;;;;7.97;6.20;;;0.60;99.90;;;;;;5072437;28;20211;-81
2024/01/17 08:22:14;;;;;;;6.75;5.10;;;0.60;99.90;;;;;;5073497;28;20227;-78
2024/01/17 08:24:42;;;;;;;7.82;5.68;;;0.70;99.90;;;;;;5063599;28;20201;-80
2024/01/17 08:27:10;;;;;;;7.57;4.05;;;0.60;99.90;;;;;;5060629;28;20201;-76
2024/01/17 08:29:36;;;;;;;6.80;4.95;;;0.70;99.90;;;;;;5061837;28;20205;-81
2024/01/17 08:32:04;;;;;;;7.90;5.60;;;0.70;99.90;;;;;;5073548;28;20229;-76
2024/01/17 08:34:30;;;;;;;5.68;3.80;;;0.70;99.90;;;;;;5071759;28;20235;-76
2024/01/17 08:36:58;;;;;;;11.43;4.82;;;0.70;99.90;;;;;;5073853;28;20331;-76
2024/01/17 08:39:25;;;;;;;6.15;4.55;;;0.80;99.90;;;;;;5063660;28;20245;-80
2024/01/17 08:41:52;;;;;;;8.27;5.28;;;0.80;99.90;;;;;;5068833;28;20234;-83
2024/01/17 08:44:20;;;;;;;9.85;5.55;;;0.80;99.90;;;;;;5071895;28;20216;-81
2024/01/17 08:46:48;;;;;;;5.72;4.63;;;0.90;99.90;;;;;;5061244;28;20210;-82
2024/01/17 08:49:15;;;;;;;10.00;5.65;;;0.90;99.90;;;;;;5063548;28;20675;-82
2024/01/17 08:51:42;;;;;;;11.07;7.20;;;0.90;99.90;;;;;;5076359;28;20236;-84
2024/01/17 08:54:10;;;;;;;8.60;6.10;;;1.00;99.90;;;;;;5078717;28;20210;-83
2024/01/17 08:56:36;;;;;;;8.07;4.40;;;1.00;99.90;;;;;;5078685;28;20231;-84
2024/01/17 08:59:03;;;;;;;5.70;5.10;;;1.10;99.90;;;;;;5078974;28;20209;-83
2024/01/17 09:01:31;;;;;;;10.07;5.20;;;1.10;99.90;;;;;;5077833;28;20225;-76
2024/01/17 09:03:58;;;;;;;7.15;5.50;;;1.10;99.90;;;;;;5062606;28;20205;-76
2024/01/17 09:06:25;;;;;;;6.72;4.68;;;1.10;99.90;;;;;;5063872;28;20201;-79
2024/01/17 09:08:52;;;;;;;7.70;5.75;;;1.20;99.90;;;;;;5074795;28;20213;-84
2024/01/17 09:11:19;;;;;;;8.00;6.15;;;1.20;99.90;;;;;;5077782;28;20590;-87
2024/01/17 09:13:48;;;;;;;6.50;5.22;;;1.20;99.90;;;;;;5074395;28;20244;-80
2024/01/17 09:16:15;;;;;;;6.30;4.88;;;1.30;99.90;;;;;;5069090;28;20222;-78
2024/01/17 09:18:43;;;;;;;6.38;4.15;;;1.40;99.90;;;;;;5075522;28;20234;-77
2024/01/17 09:21:09;;;;;;;10.25;5.13;;;1.40;99.90;;;;;;5076863;28;20206;-81
2024/01/17 09:23:37;;;;;;;9.95;4.93;;;1.40;99.90;;;;;;5075477;28;20202;-79
2024/01/17 09:26:04;;;;;;;4.93;4.53;;;1.30;99.90;;;;;;5064800;28;20254;-79
2024/01/17 09:28:31;;;;;;;5.00;4.53;;;1.40;99.90;;;;;;5062547;28;20217;-75
2024/01/17 09:30:58;;;;;;;8.85;4.32;;;1.40;99.90;;;;;;5075300;28;20231;-81
2024/01/17 09:33:26;;;;;;;6.47;4.88;;;1.50;99.90;;;;;;5077733;28;20238;-79
2024/01/17 09:35:55;;;;;;;11.15;5.85;;;1.50;99.90;;;;;;5078933;28;20599;-81
2024/01/17 09:38:22;;;;;;;7.22;5.78;;;1.50;99.90;;;;;;5077392;28;20211;-82
2024/01/17 09:40:49;;;;;;;7.65;4.75;;;1.50;99.90;;;;;;5076247;28;20312;-76
2024/01/17 09:43:16;;;;;;;5.70;4.15;;;1.60;99.90;;;;;;5072311;28;20232;-76
2024/01/17 09:45:44;;;;;;;7.10;4.28;;;1.60;99.90;;;;;;5072392;28;20203;-76
2024/01/17 09:48:12;;;;;;;10.27;5.00;;;1.70;99.90;;;;;;5072485;28;20203;-77
2024/01/17 09:50:39;;;;;;;5.45;3.92;;;1.70;99.90;;;;;;5057681;28;20205;-76
2024/01/17 09:53:12;;;;;;;9.75;4.45;;;1.70;99.90;;;;;;5055527;28;20217;-76
2024/01/17 09:55:48;;;;;;;5.32;4.15;;;1.80;99.90;;;;;;5069981;28;20229;-77
2024/01/17 09:58:17;;;;;;;4.60;3.40;;;1.80;99.90;;;;;;5054280;28;20234;-79
2024/01/17 10:01:11;;;;;;;3.92;3.63;;;1.80;99.90;;;;;;5066291;28;20636;-83
2024/01/17 10:03:51;;;;;;;8.00;3.20;;;1.80;99.90;;;;;;5060619;28;20201;-82
2024/01/17 10:06:22;;;;;;;5.75;4.05;;;1.90;99.90;;;;;;5061587;28;20215;-84
2024/01/17 10:08:54;;;;;;;5.95;4.43;;;1.90;99.90;;;;;;5064206;28;20302;-76
2024/01/17 10:11:21;;;;;;;7.60;3.55;;;1.90;99.90;;;;;;5054116;28;20638;-76
2024/01/17 10:13:48;;;;;;;5.03;4.45;;;2.00;99.90;;;;;;5053110;28;20234;-76
2024/01/17 10:16:16;;;;;;;6.60;4.63;;;2.00;99.90;;;;;;5054495;28;20243;-80
2024/01/17 10:18:42;;;;;;;7.78;4.00;;;2.00;99.90;;;;;;5055763;28;20201;-78
2024/01/17 10:21:10;;;;;;;8.35;5.10;;;2.10;99.90;;;;;;5062174;28;20209;-78
2024/01/17 10:23:38;;;;;;;6.28;4.20;;;2.10;99.90;;;;;;5070007;28;20213;-78
2024/01/17 10:26:12;;;;;;;3.95;3.20;;;2.10;99.90;;;;;;5076822;28;20202;-84
2024/01/17 10:28:39;;;;;;;5.20;4.70;;;2.20;99.90;;;;;;5078255;28;20216;-84
2024/01/17 10:31:06;;;;;;;6.00;3.42;;;2.20;99.90;;;;;;5070156;28;20267;-81
2024/01/17 10:33:33;;;;;;;5.00;3.13;;;2.20;99.90;;;;;;5077014;28;20207;-78
2024/01/17 10:36:00;;;;;;;9.35;2.92;;;2.20;99.90;;;;;;5074775;28;20216;-83
2024/01/17 10:38:32;;;;;;;5.90;3.78;;;2.20;99.90;;;;;;5079088;28;20202;-83
2024/01/17 10:41:05;;;;;;;4.00;3.50;;;2.20;99.90;;;;;;5078207;28;20269;-82
2024/01/17 10:43:33;;;;;;;4.38;3.60;;;2.20;99.90;;;;;;5079117;28;20235;-83
2024/01/17 10:46:03;;;;;;;4.85;3.40;;;2.30;99.90;;;;;;5061164;28;20202;-83
2024/01/17 10:48:30;;;;;;;4.65;3.35;;;2.20;99.90;;;;;;5059601;28;20207;-83
2024/01/17 10:51:01;;;;;;;6.60;3.55;;;2.30;99.90;;;;;;5058086;28;20683;-83
2024/01/17 10:53:31;;;;;;;3.60;3.13;;;2.20;99.90;;;;;;5058338;28;20582;-83
2024/01/17 10:56:02;;;;;;;4.05;3.03;;;2.20;99.90;;;;;;5058143;28;20223;-84
2024/01/17 10:58:29;;;;;;;4.95;3.40;;;2.20;99.90;;;;;;5058155;28;20307;-83
2024/01/17 11:01:03;;;;;;;7.63;3.13;;;2.20;99.90;;;;;;5075574;28;20232;-84
2024/01/17 11:03:33;;;;;;;5.18;3.05;;;2.30;99.90;;;;;;5078305;28;20226;-83
2024/01/17 11:06:01;;;;;;;3.92;2.75;;;2.30;99.90;;;;;;5078633;28;20205;-83
2024/01/17 11:08:28;;;;;;;3.70;2.75;;;2.30;99.90;;;;;;5077500;28;20221;-83
2024/01/17 11:10:56;;;;;;;5.97;4.00;;;2.30;99.90;;;;;;5076858;28;20201;-84
2024/01/17 11:13:25;;;;;;;7.05;4.03;;;2.30;99.90;;;;;;5079010;28;20234;-83
2024/01/17 11:15:53;;;;;;;5.20;4.00;;;2.40;99.90;;;;;;5078190;28;20280;-83
2024/01/17 11:18:24;;;;;;;5.70;3.72;;;2.40;99.90;;;;;;5079798;28;20212;-83
2024/01/17 11:20:51;;;;;;;7.60;3.70;;;2.50;99.90;;;;;;5077147;28;20234;-84
2024/01/17 11:23:26;;;;;;;4.60;3.92;;;2.50;99.90;;;;;;5076342;28;20249;-83
2024/01/17 11:26:03;;;;;;;3.60;3.15;;;2.50;99.90;;;;;;5077975;28;20246;-84
2024/01/17 11:28:38;;;;;;;4.95;3.72;;;2.60;99.90;;;;;;5081805;28;20226;-83
2024/01/17 11:31:19;;;;;;;6.43;3.67;;;2.60;99.90;;;;;;5088349;28;20203;-84
2024/01/17 11:33:48;;;;;;;8.73;3.30;;;2.60;99.90;;;;;;5089757;28;20208;-84
2024/01/17 11:36:42;;;;;;;3.22;2.92;;;2.70;99.90;;;;;;5089195;28;20283;-83
2024/01/17 11:39:14;;;;;;;4.80;2.80;;;2.80;99.90;;;;;;5088478;28;20249;-84
2024/01/17 11:41:42;;;;;;;5.32;2.85;;;2.90;99.90;;;;;;5083758;28;20226;-83
2024/01/17 11:44:11;;;;;;;2.38;1.95;;;3.00;99.90;;;;;;5087631;28;20287;-83
2024/01/17 11:46:38;;;;;;;2.05;1.85;;;3.10;99.90;;;;;;5076562;28;20207;-83
2024/01/17 11:49:09;;;;;;;3.30;2.17;;;3.10;99.90;;;;;;5070806;28;20215;-83
2024/01/17 11:51:37;;;;;;;3.00;2.40;;;3.20;99.90;;;;;;5073092;28;20243;-83
2024/01/17 11:54:05;;;;;;;4.22;3.50;;;3.30;99.90;;;;;;5071811;28;20209;-83
2024/01/17 11:56:31;;;;;;;5.40;2.50;;;3.40;99.90;;;;;;5074184;28;20263;-84
2024/01/17 11:59:05;;;;;;;2.08;1.92;;;3.40;99.90;;;;;;5073382;28;20632;-83
2024/01/17 12:01:43;;;;;;;2.70;2.22;;;3.50;99.90;;;;;;5074125;28;20704;-83
2024/01/17 12:04:13;;;;;;;2.17;1.98;;;3.60;99.90;;;;;;5074570;28;20215;-84
2024/01/17 12:06:41;;;;;;;3.03;2.65;;;3.70;99.90;;;;;;5073530;28;20204;-83
2024/01/17 12:09:15;;;;;;;5.65;1.90;;;3.70;99.90;;;;;;5071859;28;20213;-84
2024/01/17 12:11:42;;;;;;;2.40;2.17;;;3.80;99.90;;;;;;5072432;28;20775;-79
2024/01/17 12:14:09;;;;;;;1.83;1.70;;;3.90;99.90;;;;;;5070500;28;20219;-79
2024/01/17 12:16:36;;;;;;;2.67;2.47;;;4.00;99.90;;;;;;5071823;28;20290;-77
2024/01/17 12:19:03;;;;;;;2.22;1.88;;;4.10;99.90;;;;;;5069677;28;20214;-78
2024/01/17 12:21:32;;;;;;;5.15;2.63;;;4.20;99.90;;;;;;5071517;28;20606;-77
2024/01/17 12:23:59;;;;;;;2.00;1.77;;;4.30;99.90;;;;;;5072936;28;20209;-79
2024/01/17 12:26:30;;;;;;;1.90;1.70;;;4.30;99.90;;;;;;5072413;28;20216;-79
2024/01/17 12:29:07;;;;;;;1.23;1.00;;;4.40;99.90;;;;;;5066628;28;20204;-77
2024/01/17 12:31:34;;;;;;;3.58;1.75;;;4.40;99.90;;;;;;5071508;28;20310;-77
2024/01/17 12:34:01;;;;;;;4.60;2.08;;;4.50;99.90;;;;;;5071632;28;20201;-77
2024/01/17 12:36:29;;;;;;;3.28;1.90;;;4.60;99.90;;;;;;5067573;28;20772;-78
2024/01/17 12:38:57;;;;;;;2.25;1.45;;;4.70;99.90;;;;;;5068139;28;20205;-78
2024/01/17 12:41:25;;;;;;;1.95;1.65;;;4.80;99.90;;;;;;5065321;28;20208;-78
2024/01/17 12:43:52;;;;;;;3.10;1.52;;;4.90;99.90;;;;;;5074525;28;20236;-80
2024/01/17 12:46:21;;;;;;;5.38;2.00;;;5.00;99.90;;;;;;5076691;28;20208;-81
2024/01/17 12:48:56;;;;;;;2.65;1.75;;;5.00;99.90;;;;;;5076365;28;20197;-80
2024/01/17 12:51:24;;;;;;;1.95;1.40;;;5.10;99.90;;;;;;5077385;28;20216;-80
2024/01/17 12:53:51;;;;;;;1.90;1.55;;;5.40;99.90;;;;;;5076219;28;20205;-80